Time;durP1;ratioP1;P1;durP2;ratioP2;P2;SDS_P1;SDS_P2;PMS_P1;PMS_P2;Temp;Humidity;BMP_temperature;BMP_pressure;BME280_temperature;BME280_humidity;BME280_pressure;Samples;Min_cycle;Max_cycle;Signal;HPM_P1;HPM_P2
2023/06/08 00:01:45;;;;;;;0.50;0.50;;;10.50;99.90;;;;;;5051028;28;20189;-70
2023/06/08 00:04:12;;;;;;;0.60;0.60;;;10.40;99.90;;;;;;5050998;28;20216;-70
2023/06/08 00:06:40;;;;;;;0.52;0.52;;;10.40;99.90;;;;;;5050876;28;20272;-70
2023/06/08 00:09:06;;;;;;;0.50;0.50;;;10.40;99.90;;;;;;5049641;28;20193;-70
2023/06/08 00:11:32;;;;;;;1.05;0.80;;;10.40;99.90;;;;;;5050716;28;20272;-70
2023/06/08 00:13:59;;;;;;;0.50;0.50;;;10.40;99.90;;;;;;5051015;28;20193;-70
2023/06/08 00:16:27;;;;;;;0.50;0.50;;;10.40;99.90;;;;;;5050524;28;20233;-70
2023/06/08 00:18:56;;;;;;;0.65;0.65;;;10.40;99.90;;;;;;5050762;28;20683;-70
2023/06/08 00:21:26;;;;;;;0.50;0.50;;;10.40;99.90;;;;;;5056001;28;20228;-70
2023/06/08 00:23:52;;;;;;;0.50;0.50;;;10.40;99.90;;;;;;5070843;28;20280;-71
2023/06/08 00:26:18;;;;;;;1.33;1.23;;;10.40;99.90;;;;;;5069282;28;20199;-70
2023/06/08 00:28:47;;;;;;;0.70;0.70;;;10.40;99.90;;;;;;5071015;28;20200;-70
2023/06/08 00:31:13;;;;;;;0.70;0.70;;;10.40;99.90;;;;;;5069478;28;20615;-70
2023/06/08 00:33:39;;;;;;;1.42;0.88;;;10.40;99.90;;;;;;5072692;28;20306;-71
2023/06/08 00:36:05;;;;;;;0.60;0.60;;;10.40;99.90;;;;;;5069088;28;20202;-71
2023/06/08 00:38:31;;;;;;;0.57;0.57;;;10.40;99.90;;;;;;5034768;28;20201;-71
2023/06/08 00:40:57;;;;;;;0.60;0.60;;;10.30;99.90;;;;;;5034868;28;20194;-71
2023/06/08 00:43:23;;;;;;;0.50;0.50;;;10.40;99.90;;;;;;5034603;28;20389;-71
2023/06/08 00:45:48;;;;;;;0.60;0.60;;;10.30;99.90;;;;;;5034880;28;20190;-71
2023/06/08 00:48:21;;;;;;;0.75;0.75;;;10.30;99.90;;;;;;5054386;28;20684;-71
2023/06/08 00:50:47;;;;;;;0.65;0.65;;;10.30;99.90;;;;;;5054459;28;20198;-71
2023/06/08 00:53:16;;;;;;;0.55;0.55;;;10.20;99.90;;;;;;5053965;28;20197;-72
2023/06/08 00:55:43;;;;;;;0.50;0.50;;;10.20;99.90;;;;;;5054342;28;20197;-70
2023/06/08 00:58:13;;;;;;;0.75;0.75;;;10.20;99.90;;;;;;5054431;28;20202;-71
2023/06/08 01:00:42;;;;;;;0.52;0.52;;;10.10;99.90;;;;;;5054576;28;20569;-69
2023/06/08 01:05:44;;;;;;;0.50;0.50;;;10.10;99.90;;;;;;4969226;28;20694;-68
2023/06/08 01:08:27;;;;;;;0.60;0.60;;;10.00;99.90;;;;;;4957559;28;20204;-65
2023/06/08 01:11:04;;;;;;;0.50;0.50;;;10.00;99.90;;;;;;4975293;28;20197;-65
2023/06/08 01:13:49;;;;;;;0.70;0.70;;;10.00;99.90;;;;;;4974214;28;20729;-65
2023/06/08 01:16:17;;;;;;;0.60;0.60;;;10.00;99.90;;;;;;4974803;28;20310;-65
2023/06/08 01:18:44;;;;;;;0.60;0.60;;;9.90;99.90;;;;;;4975061;28;20274;-66
2023/06/08 01:21:30;;;;;;;0.60;0.60;;;9.90;99.90;;;;;;4979929;28;20443;-65
2023/06/08 01:24:13;;;;;;;0.60;0.60;;;9.80;99.90;;;;;;4994150;28;20196;-65
2023/06/08 01:26:41;;;;;;;0.50;0.50;;;9.80;99.90;;;;;;4993929;28;20191;-66
2023/06/08 01:29:09;;;;;;;0.60;0.60;;;9.70;99.90;;;;;;4994194;28;20203;-65
2023/06/08 01:31:36;;;;;;;0.50;0.50;;;9.70;99.90;;;;;;4993978;28;20561;-65
2023/06/08 01:34:04;;;;;;;0.57;0.57;;;9.60;99.90;;;;;;4992678;28;20219;-65
2023/06/08 01:36:55;;;;;;;0.70;0.70;;;9.60;99.90;;;;;;4975984;28;20191;-65
2023/06/08 01:39:45;;;;;;;0.50;0.50;;;9.60;99.90;;;;;;4993907;28;20192;-66
2023/06/08 01:42:15;;;;;;;0.60;0.60;;;9.60;99.90;;;;;;4992649;28;20211;-65
2023/06/08 01:44:57;;;;;;;1.00;0.95;;;9.60;99.90;;;;;;4973565;28;20184;-65
2023/06/08 01:47:29;;;;;;;0.80;0.80;;;9.60;99.90;;;;;;4974283;28;20280;-66
2023/06/08 01:49:56;;;;;;;0.60;0.60;;;9.60;99.90;;;;;;4974446;28;20861;-65
2023/06/08 01:52:22;;;;;;;0.60;0.60;;;9.60;99.90;;;;;;4974164;28;20566;-70
2023/06/08 01:54:47;;;;;;;0.50;0.50;;;9.50;99.90;;;;;;4974415;28;20489;-68
2023/06/08 01:57:13;;;;;;;0.60;0.60;;;9.50;99.90;;;;;;4972836;28;20597;-65
2023/06/08 01:59:39;;;;;;;0.50;0.50;;;9.50;99.90;;;;;;4973912;28;20204;-65
2023/06/08 02:02:05;;;;;;;0.50;0.50;;;9.40;99.90;;;;;;4973526;28;20642;-65
2023/06/08 02:04:31;;;;;;;0.82;0.82;;;9.40;99.90;;;;;;4973841;28;20267;-66
2023/06/08 02:06:56;;;;;;;0.60;0.60;;;9.40;99.90;;;;;;4972724;28;20201;-65
2023/06/08 02:09:22;;;;;;;0.88;0.88;;;9.40;99.90;;;;;;4973864;28;20203;-65
2023/06/08 02:11:48;;;;;;;0.40;0.40;;;9.40;99.90;;;;;;4974257;28;20237;-65
2023/06/08 02:14:14;;;;;;;0.60;0.60;;;9.40;99.90;;;;;;4956815;28;20686;-65
2023/06/08 02:16:40;;;;;;;0.60;0.60;;;9.40;99.90;;;;;;4973488;28;20207;-65
2023/06/08 02:19:06;;;;;;;0.60;0.60;;;9.40;99.90;;;;;;4956822;28;20200;-65
2023/06/08 02:21:32;;;;;;;0.60;0.60;;;9.30;99.90;;;;;;4981437;28;20279;-65
2023/06/08 02:23:58;;;;;;;0.60;0.60;;;9.30;99.90;;;;;;4993127;28;20267;-65
2023/06/08 02:26:23;;;;;;;0.50;0.50;;;9.30;99.90;;;;;;4992943;28;20192;-65
2023/06/08 02:28:49;;;;;;;0.55;0.55;;;9.30;99.90;;;;;;4993130;28;20565;-64
2023/06/08 02:31:15;;;;;;;0.60;0.60;;;9.30;99.90;;;;;;4992997;28;20214;-65
2023/06/08 02:33:41;;;;;;;0.70;0.65;;;9.30;99.90;;;;;;4993137;28;20199;-65
2023/06/08 02:36:09;;;;;;;0.65;0.65;;;9.30;99.90;;;;;;4993094;28;20686;-65
2023/06/08 02:38:35;;;;;;;0.50;0.50;;;9.30;99.90;;;;;;4989965;28;20200;-66
2023/06/08 02:41:00;;;;;;;0.70;0.70;;;9.40;99.90;;;;;;4973539;28;20386;-66
2023/06/08 02:43:26;;;;;;;0.50;0.50;;;9.40;99.90;;;;;;4955918;28;20270;-67
2023/06/08 02:45:52;;;;;;;0.60;0.60;;;9.40;99.90;;;;;;4972107;28;20210;-66
2023/06/08 02:48:17;;;;;;;0.60;0.60;;;9.50;99.90;;;;;;4973099;28;20200;-66
2023/06/08 02:50:43;;;;;;;0.93;0.93;;;9.60;99.90;;;;;;4973168;28;20200;-67
2023/06/08 02:53:09;;;;;;;0.75;0.75;;;9.60;99.90;;;;;;4973197;28;20196;-67
2023/06/08 02:55:36;;;;;;;0.52;0.52;;;9.70;99.90;;;;;;4971466;28;20243;-66
2023/06/08 02:58:03;;;;;;;0.70;0.70;;;9.70;99.90;;;;;;4972030;28;20203;-65
2023/06/08 03:00:30;;;;;;;0.50;0.50;;;9.80;99.90;;;;;;4955201;28;20287;-66
2023/06/08 03:02:59;;;;;;;0.47;0.47;;;9.90;99.90;;;;;;4982008;28;20192;-66
2023/06/08 03:05:25;;;;;;;0.60;0.60;;;10.00;99.90;;;;;;4972993;28;20219;-66
2023/06/08 03:07:52;;;;;;;0.60;0.60;;;10.00;99.90;;;;;;4972866;28;20211;-66
2023/06/08 03:10:19;;;;;;;0.60;0.60;;;10.10;99.90;;;;;;4972928;28;20288;-66
2023/06/08 03:12:45;;;;;;;0.63;0.63;;;10.20;99.90;;;;;;4973138;28;20275;-66
2023/06/08 03:15:11;;;;;;;0.50;0.50;;;10.20;99.90;;;;;;4972944;28;20243;-66
2023/06/08 03:17:37;;;;;;;0.50;0.50;;;10.30;99.90;;;;;;4972346;28;20322;-67
2023/06/08 03:20:08;;;;;;;0.50;0.50;;;10.40;99.90;;;;;;4972926;28;20671;-67
2023/06/08 03:22:34;;;;;;;0.70;0.70;;;10.40;99.90;;;;;;4988527;28;20224;-66
2023/06/08 03:25:03;;;;;;;1.27;0.80;;;10.50;99.90;;;;;;4991879;28;20192;-66
2023/06/08 03:27:28;;;;;;;0.95;0.95;;;10.50;99.90;;;;;;4974186;28;20199;-66
2023/06/08 03:29:54;;;;;;;0.50;0.50;;;10.60;99.90;;;;;;4992076;28;20278;-66
2023/06/08 03:32:20;;;;;;;0.55;0.55;;;10.70;99.90;;;;;;4992094;28;20200;-67
2023/06/08 03:34:48;;;;;;;0.70;0.70;;;10.80;99.90;;;;;;4990009;28;20203;-66
2023/06/08 03:37:14;;;;;;;0.85;0.85;;;10.90;99.90;;;;;;4972302;28;20215;-66
2023/06/08 03:39:40;;;;;;;0.50;0.50;;;10.90;99.90;;;;;;4972057;28;20200;-67
2023/06/08 03:42:05;;;;;;;0.50;0.50;;;11.00;99.90;;;;;;4972685;28;20196;-67
2023/06/08 03:44:31;;;;;;;0.50;0.50;;;11.00;99.90;;;;;;4972105;28;20563;-67
2023/06/08 03:46:57;;;;;;;0.60;0.60;;;11.20;99.90;;;;;;4972318;28;20279;-67
2023/06/08 03:49:24;;;;;;;0.60;0.60;;;11.20;99.90;;;;;;4972273;28;20196;-65
2023/06/08 03:51:50;;;;;;;0.50;0.50;;;11.30;99.90;;;;;;4972205;28;20303;-68
2023/06/08 03:54:16;;;;;;;0.50;0.50;;;11.40;99.90;;;;;;4971942;28;20211;-65
2023/06/08 03:56:42;;;;;;;0.50;0.50;;;11.60;99.90;;;;;;4971698;28;20203;-66
2023/06/08 03:59:08;;;;;;;0.60;0.60;;;11.70;99.90;;;;;;4971995;28;20192;-66
2023/06/08 04:01:35;;;;;;;0.80;0.75;;;11.80;99.90;;;;;;4971510;28;20195;-66
2023/06/08 04:04:01;;;;;;;0.60;0.60;;;11.90;99.90;;;;;;4971530;28;20224;-66
2023/06/08 04:06:33;;;;;;;0.50;0.50;;;12.00;99.90;;;;;;4986744;28;20200;-66
2023/06/08 04:08:58;;;;;;;0.40;0.40;;;12.10;99.90;;;;;;4971705;28;20714;-66
2023/06/08 04:11:25;;;;;;;0.63;0.63;;;12.30;99.90;;;;;;4971510;28;20227;-67
2023/06/08 04:13:51;;;;;;;0.40;0.40;;;12.30;99.90;;;;;;4971784;28;20193;-66
2023/06/08 04:16:17;;;;;;;0.45;0.45;;;12.40;99.90;;;;;;4971322;28;20545;-66
2023/06/08 04:18:44;;;;;;;0.60;0.60;;;12.50;99.90;;;;;;4970980;28;20323;-66
2023/06/08 04:21:10;;;;;;;0.52;0.52;;;12.70;99.90;;;;;;4976619;28;20274;-66
2023/06/08 04:23:36;;;;;;;0.60;0.60;;;12.90;99.90;;;;;;4990894;28;20187;-70
2023/06/08 04:26:03;;;;;;;0.85;0.75;;;13.00;99.90;;;;;;4990993;28;20195;-69
2023/06/08 04:28:29;;;;;;;1.45;1.15;;;13.20;99.90;;;;;;4990778;28;20572;-66
2023/06/08 04:30:55;;;;;;;0.82;0.82;;;13.40;99.90;;;;;;4990071;28;20246;-66
2023/06/08 04:33:22;;;;;;;0.60;0.60;;;13.50;99.90;;;;;;4971235;28;20203;-66
2023/06/08 04:35:48;;;;;;;0.65;0.65;;;13.70;99.90;;;;;;4971636;28;20246;-66
2023/06/08 04:38:14;;;;;;;0.60;0.60;;;13.80;99.90;;;;;;4970266;28;20243;-66
2023/06/08 04:40:53;;;;;;;0.40;0.40;;;13.90;99.90;;;;;;4971669;28;20640;-66
2023/06/08 04:43:25;;;;;;;0.85;0.70;;;13.90;99.90;;;;;;4970184;28;20200;-66
2023/06/08 04:45:59;;;;;;;0.68;0.68;;;14.00;99.90;;;;;;4971673;28;20258;-66
2023/06/08 04:48:26;;;;;;;0.65;0.65;;;13.90;99.90;;;;;;4971154;28;20728;-66
2023/06/08 04:50:52;;;;;;;0.65;0.65;;;13.90;99.90;;;;;;4954184;28;20214;-66
2023/06/08 04:53:21;;;;;;;0.63;0.63;;;13.90;99.90;;;;;;4971189;28;20275;-67
2023/06/08 04:55:48;;;;;;;0.60;0.60;;;14.00;99.90;;;;;;4971383;28;20200;-66
2023/06/08 04:58:14;;;;;;;0.50;0.50;;;14.10;99.90;;;;;;4971360;28;20243;-67
2023/06/08 05:00:40;;;;;;;0.45;0.45;;;14.20;99.90;;;;;;4971404;28;20597;-67
2023/06/08 05:03:06;;;;;;;0.77;0.77;;;14.20;99.90;;;;;;4971420;28;20231;-66
2023/06/08 05:05:31;;;;;;;0.40;0.40;;;14.20;99.90;;;;;;4971137;28;20249;-66
2023/06/08 05:07:57;;;;;;;0.47;0.47;;;14.30;99.90;;;;;;4971306;28;20732;-66
2023/06/08 05:10:23;;;;;;;0.60;0.60;;;14.40;99.90;;;;;;4971097;28;20283;-66
2023/06/08 05:12:50;;;;;;;0.75;0.55;;;14.50;99.90;;;;;;4971506;28;20224;-66
2023/06/08 05:15:16;;;;;;;0.70;0.70;;;14.60;99.90;;;;;;4971401;28;20733;-66
2023/06/08 05:17:42;;;;;;;2.30;1.20;;;14.70;99.90;;;;;;4971088;28;20287;-66
2023/06/08 05:20:08;;;;;;;0.47;0.47;;;14.80;99.90;;;;;;4954610;28;20243;-67
2023/06/08 05:22:34;;;;;;;1.75;0.90;;;14.90;99.90;;;;;;4992464;28;20206;-66
2023/06/08 05:24:59;;;;;;;0.60;0.60;;;15.00;99.90;;;;;;4994247;28;20196;-66
2023/06/08 05:27:25;;;;;;;0.70;0.70;;;15.10;99.90;;;;;;4990862;28;20231;-67
2023/06/08 05:29:51;;;;;;;0.50;0.50;;;15.30;99.90;;;;;;4974767;28;20663;-67
2023/06/08 05:32:16;;;;;;;1.38;1.08;;;15.30;99.90;;;;;;4975128;28;20200;-66
2023/06/08 05:34:42;;;;;;;0.40;0.40;;;15.20;99.90;;;;;;4974747;28;20662;-67
2023/06/08 05:37:09;;;;;;;0.88;0.88;;;15.30;99.90;;;;;;4974810;28;20279;-67
2023/06/08 05:39:35;;;;;;;0.40;0.40;;;15.40;99.90;;;;;;4974189;28;20196;-67
2023/06/08 05:42:00;;;;;;;0.50;0.50;;;15.60;99.90;;;;;;4974505;28;20196;-66
2023/06/08 05:44:27;;;;;;;0.63;0.63;;;15.70;99.90;;;;;;4972924;28;20258;-67
2023/06/08 05:46:53;;;;;;;0.30;0.30;;;15.90;99.90;;;;;;4957182;28;20231;-67
2023/06/08 05:49:19;;;;;;;2.17;0.85;;;16.00;99.90;;;;;;4974208;28;20242;-68
2023/06/08 05:51:45;;;;;;;0.43;0.43;;;16.00;99.90;;;;;;4974744;28;20222;-67
2023/06/08 05:54:10;;;;;;;0.43;0.43;;;16.10;99.90;;;;;;4973043;28;20224;-67
2023/06/08 05:56:36;;;;;;;1.48;0.93;;;16.10;99.90;;;;;;4956200;28;20296;-67
2023/06/08 05:59:02;;;;;;;1.02;1.00;;;16.20;99.90;;;;;;4974370;28;20212;-67
2023/06/08 06:01:28;;;;;;;0.55;0.55;;;16.40;99.90;;;;;;4974130;28;20196;-67
2023/06/08 06:03:54;;;;;;;0.50;0.50;;;16.40;99.90;;;;;;4974008;28;20699;-67
2023/06/08 06:06:20;;;;;;;2.72;1.70;;;16.40;99.90;;;;;;4973890;28;20204;-67
2023/06/08 06:08:45;;;;;;;0.40;0.40;;;16.40;99.90;;;;;;4974086;28;20214;-67
2023/06/08 06:11:11;;;;;;;0.40;0.40;;;16.40;99.90;;;;;;4973951;28;20255;-67
2023/06/08 06:13:37;;;;;;;0.43;0.43;;;16.40;99.90;;;;;;4973706;28;20330;-68
2023/06/08 06:16:02;;;;;;;0.55;0.55;;;16.50;99.90;;;;;;4973963;28;20659;-67
2023/06/08 06:18:28;;;;;;;0.45;0.45;;;16.60;99.90;;;;;;4973397;28;20215;-67
2023/06/08 06:20:54;;;;;;;0.77;0.70;;;16.70;99.90;;;;;;4976468;28;20275;-66
2023/06/08 06:23:20;;;;;;;0.40;0.40;;;16.70;99.90;;;;;;4992757;28;20184;-67
2023/06/08 06:25:45;;;;;;;2.58;1.25;;;16.90;99.90;;;;;;4973652;28;20196;-67
2023/06/08 06:28:11;;;;;;;0.50;0.40;;;17.10;99.90;;;;;;4973456;28;20738;-67
2023/06/08 06:30:37;;;;;;;0.50;0.50;;;17.30;99.90;;;;;;4973286;28;20335;-67
2023/06/08 06:33:03;;;;;;;0.90;0.75;;;17.40;99.90;;;;;;4973479;28;20207;-67
2023/06/08 06:35:28;;;;;;;0.50;0.50;;;17.40;99.90;;;;;;4973426;28;20546;-66
2023/06/08 06:37:55;;;;;;;1.08;0.77;;;17.30;99.90;;;;;;4973463;28;20216;-66
2023/06/08 06:40:21;;;;;;;0.98;0.80;;;17.20;99.90;;;;;;4973251;28;20192;-67
2023/06/08 06:42:47;;;;;;;0.45;0.45;;;17.20;99.90;;;;;;4973527;28;20563;-66
2023/06/08 06:45:14;;;;;;;0.40;0.40;;;17.20;99.90;;;;;;4973510;28;20290;-66
2023/06/08 06:47:40;;;;;;;0.50;0.50;;;17.20;99.90;;;;;;4973156;28;20632;-66
2023/06/08 06:50:09;;;;;;;4.03;0.93;;;17.50;99.90;;;;;;4973636;28;20207;-66
2023/06/08 06:52:35;;;;;;;0.32;0.32;;;17.50;99.90;;;;;;4972834;28;20196;-66
2023/06/08 06:55:03;;;;;;;0.35;0.35;;;17.40;99.90;;;;;;4973511;28;20551;-66
2023/06/08 06:57:31;;;;;;;0.40;0.40;;;17.40;99.90;;;;;;4972813;28;20205;-66
2023/06/08 06:59:58;;;;;;;0.50;0.50;;;17.50;99.90;;;;;;4972937;28;20188;-67
2023/06/08 07:02:25;;;;;;;0.30;0.30;;;17.70;99.90;;;;;;4972890;28;20641;-67
2023/06/08 07:04:54;;;;;;;1.05;0.50;;;17.80;99.90;;;;;;4960331;28;20308;-67
2023/06/08 07:07:20;;;;;;;0.32;0.32;;;17.90;99.90;;;;;;4953515;29;20208;-67
2023/06/08 07:09:46;;;;;;;0.40;0.40;;;18.30;99.90;;;;;;4953664;29;20201;-67
2023/06/08 07:12:14;;;;;;;0.40;0.40;;;18.30;99.90;;;;;;4953526;29;20604;-67
2023/06/08 07:14:40;;;;;;;0.50;0.50;;;18.30;99.90;;;;;;4953187;29;20193;-67
2023/06/08 07:17:06;;;;;;;0.85;0.40;;;18.30;99.90;;;;;;4968658;28;20213;-67
2023/06/08 07:19:33;;;;;;;0.40;0.40;;;18.50;99.90;;;;;;4953198;29;20193;-67
2023/06/08 07:21:59;;;;;;;1.60;0.60;;;18.60;99.90;;;;;;4946543;28;20710;-67
2023/06/08 07:24:25;;;;;;;0.40;0.40;;;18.90;99.90;;;;;;4952929;29;20230;-67
2023/06/08 07:26:50;;;;;;;0.63;0.63;;;18.70;99.90;;;;;;4935876;29;20201;-67
2023/06/08 07:29:16;;;;;;;0.40;0.40;;;18.60;99.90;;;;;;4936212;29;20247;-67
2023/06/08 07:31:42;;;;;;;0.20;0.20;;;18.80;99.90;;;;;;4953645;29;20280;-67
2023/06/08 07:34:07;;;;;;;0.70;0.70;;;18.90;99.90;;;;;;4953191;29;20557;-67
2023/06/08 07:36:35;;;;;;;0.30;0.30;;;18.80;99.90;;;;;;4952931;29;20212;-67
2023/06/08 07:39:03;;;;;;;0.30;0.30;;;18.80;99.90;;;;;;4953184;29;20296;-67
2023/06/08 07:41:29;;;;;;;0.30;0.30;;;18.90;99.90;;;;;;4952570;29;20200;-67
2023/06/08 07:43:55;;;;;;;0.75;0.65;;;18.90;99.90;;;;;;4952468;28;20634;-66
2023/06/08 07:46:21;;;;;;;0.32;0.32;;;18.90;99.90;;;;;;4952776;29;20193;-67
2023/06/08 07:48:47;;;;;;;0.40;0.40;;;19.00;99.90;;;;;;4961815;28;20247;-67
2023/06/08 07:51:14;;;;;;;0.22;0.22;;;19.10;99.90;;;;;;4972391;28;20196;-67
2023/06/08 07:53:40;;;;;;;0.40;0.40;;;19.20;99.90;;;;;;4971962;28;20275;-66
2023/06/08 07:56:07;;;;;;;0.30;0.30;;;19.40;99.90;;;;;;4972405;28;20208;-67
2023/06/08 07:58:33;;;;;;;0.60;0.60;;;19.50;99.90;;;;;;4971846;28;20251;-67
2023/06/08 08:01:00;;;;;;;0.30;0.30;;;19.40;99.90;;;;;;4971924;28;20201;-67
2023/06/08 08:03:26;;;;;;;0.55;0.55;;;19.40;99.90;;;;;;4971778;28;20606;-67
2023/06/08 08:05:52;;;;;;;0.30;0.30;;;19.70;99.90;;;;;;4969734;28;20200;-67
2023/06/08 08:08:18;;;;;;;0.90;0.57;;;19.80;99.90;;;;;;4952801;29;20694;-66
2023/06/08 08:10:43;;;;;;;0.52;0.52;;;19.90;99.90;;;;;;4953321;29;20288;-67
2023/06/08 08:13:11;;;;;;;0.30;0.30;;;20.20;99.90;;;;;;4935769;29;20207;-67
2023/06/08 08:15:39;;;;;;;0.30;0.30;;;20.70;99.90;;;;;;4952643;29;20955;-67
2023/06/08 08:18:05;;;;;;;0.30;0.30;;;21.20;99.90;;;;;;4952351;29;20213;-66
2023/06/08 08:20:31;;;;;;;0.30;0.30;;;21.40;99.90;;;;;;4952359;29;20193;-67
2023/06/08 08:22:57;;;;;;;0.40;0.40;;;21.30;99.90;;;;;;4952925;28;20623;-67
2023/06/08 08:25:22;;;;;;;0.50;0.50;;;21.20;99.90;;;;;;4952343;29;20232;-67
2023/06/08 08:27:48;;;;;;;1.70;0.73;;;20.90;99.90;;;;;;4952172;29;20219;-67
2023/06/08 08:30:14;;;;;;;7.05;1.05;;;20.90;99.90;;;;;;4935101;29;20348;-67
2023/06/08 08:32:40;;;;;;;0.40;0.40;;;20.60;99.90;;;;;;4951040;29;20287;-67
2023/06/08 08:35:06;;;;;;;6.32;1.30;;;20.30;99.90;;;;;;4952381;29;20196;-67
2023/06/08 08:37:32;;;;;;;0.73;0.52;;;20.20;99.90;;;;;;4952423;29;20211;-66
2023/06/08 08:39:58;;;;;;;1.67;0.60;;;20.30;99.90;;;;;;4935255;29;20679;-66
2023/06/08 08:42:30;;;;;;;0.40;0.40;;;20.50;99.90;;;;;;4952023;29;20208;-67
2023/06/08 08:44:57;;;;;;;0.30;0.30;;;20.40;99.90;;;;;;4962198;28;20219;-67
2023/06/08 08:47:26;;;;;;;0.35;0.35;;;20.40;99.90;;;;;;4971401;28;20192;-67
2023/06/08 08:50:03;;;;;;;0.30;0.30;;;21.00;99.90;;;;;;4971455;28;20275;-67
2023/06/08 08:52:33;;;;;;;0.73;0.73;;;21.30;99.90;;;;;;4971339;28;20200;-67
2023/06/08 08:55:00;;;;;;;0.25;0.25;;;21.70;99.90;;;;;;4973768;28;20196;-67
2023/06/08 08:57:30;;;;;;;0.50;0.50;;;21.80;99.90;;;;;;4957640;28;20222;-67
2023/06/08 08:59:56;;;;;;;2.22;0.60;;;21.90;99.90;;;;;;4975459;28;20215;-67
2023/06/08 09:02:22;;;;;;;0.30;0.30;;;21.40;99.90;;;;;;4974880;28;20195;-67
2023/06/08 09:04:48;;;;;;;0.38;0.38;;;21.00;99.90;;;;;;4973623;28;20220;-67
2023/06/08 09:07:19;;;;;;;0.65;0.63;;;21.10;99.90;;;;;;4975246;28;20204;-67
2023/06/08 09:10:13;;;;;;;0.40;0.40;;;21.10;99.90;;;;;;4975035;28;20275;-67
2023/06/08 09:12:42;;;;;;;0.20;0.20;;;21.20;99.90;;;;;;4974936;28;20207;-67
2023/06/08 09:15:11;;;;;;;0.40;0.40;;;21.20;99.90;;;;;;4935579;29;20287;-67
2023/06/08 09:17:38;;;;;;;3.42;1.13;;;20.90;99.90;;;;;;4955439;29;20220;-67
2023/06/08 09:20:08;;;;;;;0.45;0.30;;;21.10;99.90;;;;;;4938480;29;20205;-67
2023/06/08 09:22:37;;;;;;;1.17;0.75;;;21.30;99.90;;;;;;4954829;29;20648;-67
2023/06/08 09:25:05;;;;;;;8.27;0.65;;;21.40;99.90;;;;;;4955681;29;20193;-67
2023/06/08 09:27:31;;;;;;;0.52;0.43;;;21.50;99.90;;;;;;4955164;29;20193;-67
2023/06/08 09:29:59;;;;;;;0.43;0.43;;;22.30;99.90;;;;;;4955980;29;20871;-67
2023/06/08 09:32:33;;;;;;;0.25;0.25;;;22.70;99.90;;;;;;4937862;29;20236;-67
2023/06/08 09:35:03;;;;;;;0.30;0.30;;;22.50;99.90;;;;;;4955363;29;20656;-67
2023/06/08 09:37:36;;;;;;;0.20;0.20;;;22.40;99.90;;;;;;4954930;29;20244;-67
2023/06/08 09:40:08;;;;;;;0.20;0.20;;;22.40;99.90;;;;;;4955130;29;20219;-67
2023/06/08 09:42:53;;;;;;;0.22;0.22;;;22.60;99.90;;;;;;4954787;29;20193;-67
2023/06/08 09:45:20;;;;;;;0.25;0.25;;;23.10;99.90;;;;;;4953805;29;20201;-68
2023/06/08 09:47:47;;;;;;;3.03;0.98;;;23.40;99.90;;;;;;4955119;29;20201;-67
2023/06/08 09:50:13;;;;;;;0.30;0.30;;;23.50;98.10;;;;;;4955023;29;20274;-67
2023/06/08 09:52:39;;;;;;;0.22;0.22;;;23.20;98.50;;;;;;4954790;28;20200;-67
2023/06/08 09:55:05;;;;;;;0.40;0.40;;;23.00;99.90;;;;;;4954994;29;20216;-67
2023/06/08 09:57:37;;;;;;;0.22;0.22;;;22.90;98.60;;;;;;4954626;29;20197;-67
2023/06/08 10:02:55;;;;;;;0.43;0.43;;;22.60;98.80;;;;;;4954299;29;20200;-67
2023/06/08 10:05:23;;;;;;;0.30;0.30;;;22.70;99.90;;;;;;4954231;28;20280;-67
2023/06/08 10:07:54;;;;;;;0.45;0.43;;;23.20;99.50;;;;;;4954491;29;20201;-67
2023/06/08 10:10:31;;;;;;;0.30;0.30;;;23.50;98.20;;;;;;4954544;28;20208;-68
2023/06/08 10:12:57;;;;;;;0.63;0.60;;;24.00;98.20;;;;;;4954601;29;20212;-67
2023/06/08 10:15:24;;;;;;;0.35;0.35;;;24.30;96.40;;;;;;4954413;29;20632;-67
2023/06/08 10:17:54;;;;;;;0.47;0.47;;;24.60;96.90;;;;;;4954626;29;20236;-67
2023/06/08 10:20:20;;;;;;;0.75;0.75;;;24.90;94.80;;;;;;4954475;29;20196;-69
2023/06/08 10:22:47;;;;;;;0.20;0.20;;;24.90;95.00;;;;;;4954629;29;20256;-68
2023/06/08 10:25:16;;;;;;;0.25;0.25;;;25.10;95.20;;;;;;4954604;29;20201;-68
2023/06/08 10:27:50;;;;;;;0.20;0.20;;;25.40;93.90;;;;;;4954761;29;20193;-68
2023/06/08 10:30:28;;;;;;;0.30;0.30;;;25.40;94.80;;;;;;4954875;29;20204;-67
2023/06/08 10:33:07;;;;;;;0.47;0.47;;;24.60;94.00;;;;;;4954387;29;20201;-67
2023/06/08 10:35:32;;;;;;;0.85;0.55;;;24.70;93.50;;;;;;4936923;29;20236;-68
2023/06/08 10:38:16;;;;;;;0.25;0.25;;;24.90;94.40;;;;;;4954125;29;20680;-67
2023/06/08 10:40:50;;;;;;;0.17;0.17;;;25.10;92.80;;;;;;4952831;29;20197;-67
2023/06/08 10:43:17;;;;;;;0.30;0.30;;;25.40;92.90;;;;;;4954230;29;20203;-67
2023/06/08 10:45:51;;;;;;;0.13;0.13;;;25.40;92.20;;;;;;4954093;29;20244;-67
2023/06/08 10:48:20;;;;;;;0.30;0.30;;;25.80;92.80;;;;;;4973307;28;20698;-67
2023/06/08 10:50:48;;;;;;;0.20;0.20;;;25.60;91.60;;;;;;4973502;28;20204;-67
2023/06/08 10:53:20;;;;;;;0.40;0.40;;;25.00;90.90;;;;;;4973269;28;20196;-67
2023/06/08 10:55:50;;;;;;;0.40;0.40;;;25.10;90.90;;;;;;4972011;28;20211;-68
2023/06/08 10:58:20;;;;;;;0.20;0.20;;;25.60;92.90;;;;;;4973250;28;20204;-67
2023/06/08 11:00:50;;;;;;;0.30;0.30;;;26.00;91.70;;;;;;4973461;28;20192;-67
2023/06/08 11:03:20;;;;;;;0.20;0.20;;;26.20;91.90;;;;;;4973146;28;20200;-68
2023/06/08 11:05:50;;;;;;;0.30;0.30;;;25.80;90.70;;;;;;4944200;29;20345;-67
2023/06/08 11:08:18;;;;;;;0.60;0.60;;;25.90;91.00;;;;;;4914190;29;20206;-67
2023/06/08 11:10:50;;;;;;;1.45;0.40;;;25.60;90.30;;;;;;4925628;29;20206;-67
2023/06/08 11:13:16;;;;;;;0.32;0.32;;;25.60;90.50;;;;;;4934540;29;20208;-66
2023/06/08 11:15:44;;;;;;;1.55;0.70;;;25.50;89.60;;;;;;4934289;29;20197;-67
2023/06/08 11:18:10;;;;;;;0.40;0.40;;;25.60;89.90;;;;;;4933391;29;20217;-66
2023/06/08 11:20:38;;;;;;;0.90;0.40;;;25.90;88.50;;;;;;4933877;29;20196;-68
2023/06/08 11:23:09;;;;;;;0.40;0.30;;;25.90;90.20;;;;;;4934551;29;20190;-66
2023/06/08 11:25:35;;;;;;;0.65;0.43;;;26.20;88.50;;;;;;4934070;29;20214;-67
2023/06/08 11:28:01;;;;;;;0.30;0.30;;;26.40;89.80;;;;;;4934933;29;20802;-67
2023/06/08 11:30:31;;;;;;;0.20;0.20;;;26.40;86.20;;;;;;4934174;29;20201;-68
2023/06/08 11:32:58;;;;;;;0.70;0.50;;;26.70;88.70;;;;;;4934153;29;20197;-67
2023/06/08 11:35:24;;;;;;;0.35;0.35;;;26.80;88.90;;;;;;4934487;29;20209;-67
2023/06/08 11:37:55;;;;;;;1.05;0.68;;;27.40;84.70;;;;;;4934017;29;20224;-67
2023/06/08 11:40:21;;;;;;;0.32;0.25;;;27.60;82.80;;;;;;4934187;29;20585;-67
2023/06/08 11:42:47;;;;;;;7.93;0.55;;;27.90;85.20;;;;;;4934012;29;20197;-67
2023/06/08 11:45:14;;;;;;;0.60;0.55;;;27.10;84.10;;;;;;4934036;29;20252;-67
2023/06/08 11:47:41;;;;;;;1.00;0.63;;;27.20;85.10;;;;;;4933889;29;20193;-67
2023/06/08 11:50:08;;;;;;;0.30;0.30;;;28.10;82.90;;;;;;4934107;29;20538;-67
2023/06/08 11:52:35;;;;;;;0.25;0.25;;;27.10;83.40;;;;;;4916718;29;20242;-67
2023/06/08 11:55:07;;;;;;;0.70;0.32;;;25.80;83.00;;;;;;4933861;29;20197;-67
2023/06/08 11:57:47;;;;;;;0.30;0.30;;;25.60;85.90;;;;;;4933074;29;20691;-67
2023/06/08 12:00:28;;;;;;;0.22;0.22;;;25.80;84.80;;;;;;4933857;29;20219;-67
2023/06/08 12:02:57;;;;;;;0.10;0.10;;;25.80;83.50;;;;;;4931865;29;20713;-70
2023/06/08 12:05:43;;;;;;;0.80;0.60;;;25.40;87.60;;;;;;4931154;29;20233;-69
2023/06/08 12:08:14;;;;;;;0.32;0.32;;;24.70;87.50;;;;;;4952942;29;20233;-69
2023/06/08 12:10:41;;;;;;;0.30;0.30;;;24.70;88.80;;;;;;4952529;29;20710;-70
2023/06/08 12:13:15;;;;;;;0.73;0.25;;;25.10;87.80;;;;;;4952707;29;20193;-71
2023/06/08 12:15:46;;;;;;;0.43;0.43;;;25.60;86.30;;;;;;4952727;29;20192;-70
2023/06/08 12:18:17;;;;;;;0.50;0.50;;;25.30;86.00;;;;;;4951530;29;20224;-70
2023/06/08 12:20:45;;;;;;;1.08;0.52;;;25.30;83.10;;;;;;4952025;29;20188;-70
2023/06/08 12:23:12;;;;;;;0.30;0.30;;;25.20;84.10;;;;;;4952776;29;20192;-73
2023/06/08 12:25:40;;;;;;;0.28;0.28;;;24.40;87.70;;;;;;4952423;29;20420;-69
2023/06/08 12:28:15;;;;;;;0.50;0.43;;;24.20;87.20;;;;;;4935252;29;20204;-70
2023/06/08 12:30:41;;;;;;;0.65;0.30;;;24.60;90.00;;;;;;4932737;29;20684;-71
2023/06/08 12:33:07;;;;;;;0.35;0.35;;;25.30;85.80;;;;;;4933105;29;20204;-69
2023/06/08 12:35:32;;;;;;;0.20;0.20;;;25.60;87.70;;;;;;4931822;29;20204;-69
2023/06/08 12:37:58;;;;;;;0.45;0.45;;;25.50;82.80;;;;;;4933295;29;20202;-69
2023/06/08 12:40:24;;;;;;;0.20;0.20;;;24.40;86.30;;;;;;4933434;29;20189;-70
2023/06/08 12:42:49;;;;;;;11.32;0.75;;;24.10;87.50;;;;;;4916045;29;20197;-70
2023/06/08 12:45:20;;;;;;;0.20;0.20;;;25.00;89.30;;;;;;4933164;29;20200;-69
2023/06/08 12:47:46;;;;;;;0.52;0.45;;;26.20;86.40;;;;;;4933630;29;20748;-70
2023/06/08 12:50:13;;;;;;;0.20;0.20;;;26.70;84.50;;;;;;4933074;29;20692;-69
2023/06/08 12:52:39;;;;;;;0.30;0.30;;;27.20;81.50;;;;;;4933004;29;20208;-70
2023/06/08 12:55:06;;;;;;;0.52;0.45;;;27.80;80.60;;;;;;4933085;29;20522;-69
2023/06/08 12:57:32;;;;;;;0.22;0.22;;;28.20;81.00;;;;;;4935647;28;20664;-70